Easton, CT (06612)

10:43 AM EDT on September 04, 2015 (GMT -0400)
N Park and Sanford | | Change Station
CLOSE
Current Station
Personal Weather Station
Location: Easton, CT
Elevation: 411 ft
Nearby Weather Stations

Elev 411 ft 41.28 °N, 73.28 °W | Updated 12 seconds ago

Overcast
Overcast
75.4 °F
Feels Like 76 °F
N
0.0
Wind Variable Wind from NE
Gusts 2.7 mph

Today
High -- | Low -- °F
--% Chance of Precip.
Yesterday
High -- | Low -- °F
Precip. -- in
6:22 AM 7:21 PM
Waning Gibbous, 59% visible
Pressure 30.09 in
Visibility 9.0 miles
Clouds Mostly Cloudy 2600 ft
Heat Index 76 °F
Dew Point 29 °F
Humidity 18%
Rainfall 0.00 in
Snow Depth Not available.
UV 3 out of 12
Pollen 8.20 out of 12
Air Quality Not available.
Flu Activity Not available.
SPECI KBDR 041435Z 08010KT 9SM BKN026 26/19 A3009 RMK AO2 T02610194
Pressure 30.09 in
Visibility 9.0 miles
Clouds Mostly Cloudy 2600 ft
Heat Index 76 °F
Dew Point 29 °F
Humidity 18%
Rainfall 0.00 in
Snow Depth Not available.
UV 3 out of 12
Pollen 8.20 out of 12
Air Quality Not available.
Flu Activity Not available.
SPECI KBDR 041435Z 08010KT 9SM BKN026 26/19 A3009 RMK AO2 T02610194

10-Day Weather Forecast

×

Almanac

Astronomy

Sep. 04, 2015 Rise Set
Actual Time
Civil Twilight
Nautical Twilight
Astronomical Twilight
Moon
Length of Visible Light
Length of Day
Tomorrow will be .
, % of the Moon is Illuminated

Today's Extremes

State Highs State Lows

Community

WunderPhotos

Upload Photos

1,852,187 photos uploaded!

WunderBlogs® & News

Nearby

Air Quality

  Air Quality AQ Index Pollutant
Not available.

Snow Depth

Station Depth Elevation

Earthquake Activity

City Distance Mag. Time & Date
Minimum magnitude displayed is 2.5.

Coastal Water Temperatures

Place Temperature

Stations

Nearby Weather Stations

Station Location Temp. Windchill Dew Point Humidity Wind Precip. Elev Updated Type